Time;durP1;ratioP1;P1;durP2;ratioP2;P2;SDS_P1;SDS_P2;PMS_P1;PMS_P2;Temp;Humidity;BMP_temperature;BMP_pressure;BME280_temperature;BME280_humidity;BME280_pressure;Samples;Min_cycle;Max_cycle;Signal;HPM_P1;HPM_P2
2024/03/18 00:00:31;;;;;;;10.02;4.85;;;;;;;;;;10274843;28;20073;-62
2024/03/18 00:05:29;;;;;;;6.88;4.60;;;;;;;;;;10281305;28;20065;-62
2024/03/18 00:10:26;;;;;;;9.07;4.82;;;;;;;;;;10273742;28;20087;-62
2024/03/18 00:15:25;;;;;;;5.00;4.43;;;;;;;;;;10290843;28;20084;-62
2024/03/18 00:20:23;;;;;;;5.10;4.15;;;;;;;;;;10276978;28;20067;-62
2024/03/18 00:25:20;;;;;;;4.90;4.40;;;;;;;;;;10275867;28;20064;-61
2024/03/18 00:30:18;;;;;;;5.20;4.28;;;;;;;;;;10274204;28;20536;-62
2024/03/18 00:35:17;;;;;;;5.78;4.47;;;;;;;;;;10274295;28;20124;-62
2024/03/18 00:40:15;;;;;;;5.03;4.30;;;;;;;;;;10280387;28;20106;-62
2024/03/18 00:45:14;;;;;;;5.82;4.10;;;;;;;;;;10281155;28;20084;-64
2024/03/18 00:50:12;;;;;;;5.10;4.60;;;;;;;;;;10278236;28;20095;-63
2024/03/18 00:55:11;;;;;;;6.47;5.63;;;;;;;;;;10275425;28;20064;-62
2024/03/18 01:00:11;;;;;;;6.85;4.70;;;;;;;;;;10283055;28;20524;-62
2024/03/18 01:05:10;;;;;;;12.40;4.97;;;;;;;;;;10279900;28;20073;-63
2024/03/18 01:10:08;;;;;;;9.43;5.05;;;;;;;;;;10285789;28;20076;-61
2024/03/18 01:15:08;;;;;;;6.55;4.60;;;;;;;;;;10283724;28;20064;-62
2024/03/18 01:20:14;;;;;;;6.45;4.85;;;;;;;;;;10287655;28;20493;-62
2024/03/18 01:25:13;;;;;;;7.00;4.55;;;;;;;;;;10284483;28;20079;-62
2024/03/18 01:30:13;;;;;;;6.35;4.00;;;;;;;;;;10286297;28;20064;-62
2024/03/18 01:35:12;;;;;;;5.45;4.60;;;;;;;;;;10282055;28;20075;-62
2024/03/18 01:40:10;;;;;;;5.55;4.80;;;;;;;;;;10286387;28;20506;-62
2024/03/18 01:45:09;;;;;;;4.95;4.40;;;;;;;;;;10287082;28;20080;-62
2024/03/18 01:50:09;;;;;;;6.07;4.18;;;;;;;;;;10289553;28;20083;-62
2024/03/18 01:55:08;;;;;;;5.93;4.32;;;;;;;;;;10290419;28;20091;-62
2024/03/18 02:00:14;;;;;;;5.70;4.38;;;;;;;;;;10265300;28;20488;-62
2024/03/18 02:05:14;;;;;;;5.72;4.47;;;;;;;;;;10287673;28;20071;-62
2024/03/18 02:10:12;;;;;;;6.30;5.25;;;;;;;;;;10283723;28;20133;-62
2024/03/18 02:15:10;;;;;;;7.13;5.47;;;;;;;;;;10254943;28;20084;-62
2024/03/18 02:20:09;;;;;;;9.10;5.30;;;;;;;;;;10250998;28;20073;-62
2024/03/18 02:25:10;;;;;;;5.75;5.05;;;;;;;;;;10249498;28;20045;-62
2024/03/18 02:30:08;;;;;;;6.47;5.65;;;;;;;;;;10249007;28;20088;-62
2024/03/18 02:35:08;;;;;;;8.07;5.28;;;;;;;;;;10251121;28;20072;-62
2024/03/18 02:40:08;;;;;;;5.18;4.28;;;;;;;;;;10253102;28;20453;-63
2024/03/18 02:45:08;;;;;;;7.40;4.85;;;;;;;;;;10249488;28;20536;-63
2024/03/18 02:50:06;;;;;;;6.38;4.88;;;;;;;;;;10249270;28;20072;-62
2024/03/18 02:55:04;;;;;;;12.57;8.43;;;;;;;;;;10243552;28;20538;-63
2024/03/18 03:00:05;;;;;;;4.70;4.25;;;;;;;;;;10242328;28;20081;-62
2024/03/18 03:05:04;;;;;;;5.63;3.85;;;;;;;;;;10252609;28;20086;-62
2024/03/18 03:10:03;;;;;;;5.53;4.25;;;;;;;;;;10249836;28;20037;-62
2024/03/18 03:15:01;;;;;;;4.50;4.00;;;;;;;;;;10250109;28;20091;-63
2024/03/18 03:19:58;;;;;;;4.57;3.92;;;;;;;;;;10247450;28;20648;-62
2024/03/18 03:24:57;;;;;;;6.40;4.53;;;;;;;;;;10247907;28;20085;-62
2024/03/18 03:29:54;;;;;;;7.13;4.50;;;;;;;;;;10248936;28;20069;-63
2024/03/18 03:34:52;;;;;;;7.25;4.35;;;;;;;;;;10243284;28;20084;-63
2024/03/18 03:39:49;;;;;;;5.72;4.70;;;;;;;;;;10240613;28;20092;-63
2024/03/18 03:44:48;;;;;;;5.93;5.07;;;;;;;;;;10248101;28;20526;-64
2024/03/18 03:49:46;;;;;;;8.55;4.30;;;;;;;;;;10248168;28;20179;-63
2024/03/18 03:54:44;;;;;;;6.93;4.95;;;;;;;;;;10248338;28;20075;-63
2024/03/18 03:59:41;;;;;;;5.38;4.25;;;;;;;;;;10245436;28;20076;-63
2024/03/18 04:04:40;;;;;;;5.47;4.30;;;;;;;;;;10244972;28;20072;-63
2024/03/18 04:09:37;;;;;;;5.00;4.32;;;;;;;;;;10247758;28;20056;-63
2024/03/18 04:14:35;;;;;;;4.97;4.47;;;;;;;;;;10246579;28;20091;-63
2024/03/18 04:19:33;;;;;;;93.47;46.38;;;;;;;;;;10245480;28;20518;-63
2024/03/18 04:24:32;;;;;;;12.30;7.50;;;;;;;;;;10247164;28;20709;-63
2024/03/18 04:29:29;;;;;;;5.60;5.03;;;;;;;;;;10244565;28;20841;-63
2024/03/18 04:34:29;;;;;;;8.27;5.78;;;;;;;;;;10243009;28;20111;-63
2024/03/18 04:39:27;;;;;;;6.07;4.95;;;;;;;;;;10249764;28;20496;-64
2024/03/18 04:44:25;;;;;;;8.13;6.00;;;;;;;;;;10249156;28;20083;-62
2024/03/18 04:49:23;;;;;;;7.45;5.32;;;;;;;;;;10244105;28;20069;-62
2024/03/18 04:54:20;;;;;;;6.47;5.28;;;;;;;;;;10243669;28;20430;-63
2024/03/18 04:59:18;;;;;;;6.32;4.57;;;;;;;;;;10244543;28;20071;-62
2024/03/18 05:04:17;;;;;;;11.65;6.30;;;;;;;;;;10245335;28;20492;-62
2024/03/18 05:09:14;;;;;;;6.30;4.57;;;;;;;;;;10242988;28;20451;-62
2024/03/18 05:14:11;;;;;;;10.43;9.32;;;;;;;;;;10241871;28;20068;-63
2024/03/18 05:19:09;;;;;;;11.95;10.63;;;;;;;;;;10240986;28;20065;-62
2024/03/18 05:24:08;;;;;;;11.65;9.52;;;;;;;;;;10246159;28;20442;-62
2024/03/18 05:29:05;;;;;;;13.10;8.52;;;;;;;;;;10241456;28;20084;-63
2024/03/18 05:34:05;;;;;;;7.60;6.18;;;;;;;;;;10244722;28;20467;-62
2024/03/18 05:39:04;;;;;;;12.35;7.20;;;;;;;;;;10245930;28;20117;-63
2024/03/18 05:44:03;;;;;;;124.82;67.90;;;;;;;;;;10244076;28;20072;-62
2024/03/18 05:49:00;;;;;;;10.25;8.25;;;;;;;;;;10248327;28;20068;-61
2024/03/18 05:53:58;;;;;;;8.32;6.63;;;;;;;;;;10265403;28;20608;-62
2024/03/18 05:58:55;;;;;;;16.10;8.40;;;;;;;;;;10246417;28;20084;-62
2024/03/18 06:03:54;;;;;;;7.15;6.10;;;;;;;;;;10233950;28;20084;-62
2024/03/18 06:08:51;;;;;;;8.27;5.35;;;;;;;;;;10248886;28;20540;-63
2024/03/18 06:13:49;;;;;;;9.93;6.00;;;;;;;;;;10256634;28;20534;-61
2024/03/18 06:18:47;;;;;;;13.25;7.18;;;;;;;;;;10255019;28;20096;-62
2024/03/18 06:23:50;;;;;;;13.13;6.72;;;;;;;;;;10255802;28;20067;-62
2024/03/18 06:28:48;;;;;;;9.02;6.00;;;;;;;;;;10255007;28;20175;-62
2024/03/18 06:33:47;;;;;;;10.63;5.70;;;;;;;;;;10254958;28;20068;-62
2024/03/18 06:38:49;;;;;;;7.93;6.07;;;;;;;;;;10260292;28;20491;-61
2024/03/18 06:43:47;;;;;;;7.57;6.80;;;;;;;;;;10253475;28;20160;-62
2024/03/18 06:48:45;;;;;;;8.65;6.28;;;;;;;;;;10252825;28;20107;-61
2024/03/18 06:53:42;;;;;;;8.32;7.18;;;;;;;;;;10257342;28;20061;-62
2024/03/18 06:58:41;;;;;;;6.65;5.88;;;;;;;;;;10247931;28;20096;-63
2024/03/18 07:03:40;;;;;;;8.95;6.47;;;;;;;;;;10250280;28;20100;-62
2024/03/18 07:08:38;;;;;;;10.80;6.50;;;;;;;;;;10254425;28;20063;-63
2024/03/18 07:13:36;;;;;;;8.38;6.07;;;;;;;;;;10237314;28;20081;-63
2024/03/18 07:18:35;;;;;;;10.73;6.63;;;;;;;;;;10250549;28;20455;-63
2024/03/18 07:23:33;;;;;;;10.27;6.75;;;;;;;;;;10255033;28;20068;-62
2024/03/18 07:28:33;;;;;;;8.07;6.85;;;;;;;;;;10253116;28;20064;-63
2024/03/18 07:33:31;;;;;;;10.45;6.60;;;;;;;;;;10253669;28;20422;-62
2024/03/18 07:38:31;;;;;;;11.00;7.15;;;;;;;;;;10274771;28;20069;-62
2024/03/18 07:43:28;;;;;;;10.82;7.28;;;;;;;;;;10271171;28;20061;-62
2024/03/18 07:48:26;;;;;;;8.05;7.20;;;;;;;;;;10246110;28;20635;-63
2024/03/18 07:53:24;;;;;;;10.18;8.27;;;;;;;;;;10252524;28;20083;-62
2024/03/18 07:58:23;;;;;;;11.63;7.43;;;;;;;;;;10245223;28;20084;-62
2024/03/18 08:03:20;;;;;;;9.18;6.82;;;;;;;;;;10245594;28;20061;-63
2024/03/18 08:08:17;;;;;;;12.32;8.68;;;;;;;;;;10252939;28;20060;-63
2024/03/18 08:13:15;;;;;;;10.25;7.22;;;;;;;;;;10251832;28;20416;-63
2024/03/18 08:18:14;;;;;;;9.77;7.70;;;;;;;;;;10255537;28;20073;-62
2024/03/18 08:23:11;;;;;;;12.23;7.63;;;;;;;;;;10257670;28;20068;-63
2024/03/18 08:28:09;;;;;;;11.93;7.60;;;;;;;;;;10237018;28;20057;-63
2024/03/18 08:33:06;;;;;;;13.65;8.00;;;;;;;;;;10250772;28;20060;-64
2024/03/18 08:38:05;;;;;;;8.65;7.63;;;;;;;;;;10252186;28;20129;-63
2024/03/18 08:43:03;;;;;;;8.45;6.95;;;;;;;;;;10248834;28;20080;-63
2024/03/18 08:48:00;;;;;;;10.45;7.93;;;;;;;;;;10250528;28;20510;-62
2024/03/18 08:52:58;;;;;;;8.98;8.02;;;;;;;;;;10267634;28;20091;-62
2024/03/18 08:57:57;;;;;;;10.63;7.07;;;;;;;;;;10249384;28;20071;-63
2024/03/18 09:02:54;;;;;;;7.95;7.13;;;;;;;;;;10257228;28;20060;-63
2024/03/18 09:07:52;;;;;;;9.20;7.32;;;;;;;;;;10257381;28;20072;-63
2024/03/18 09:12:49;;;;;;;9.77;6.93;;;;;;;;;;10247721;28;20507;-63
2024/03/18 09:17:48;;;;;;;8.52;6.43;;;;;;;;;;10252708;28;20077;-62
2024/03/18 09:22:46;;;;;;;7.65;6.85;;;;;;;;;;10276235;28;20069;-63
2024/03/18 09:27:49;;;;;;;9.98;6.20;;;;;;;;;;10263525;28;20087;-62
2024/03/18 09:32:48;;;;;;;12.10;8.05;;;;;;;;;;10256979;28;20089;-62
2024/03/18 09:37:46;;;;;;;10.95;7.03;;;;;;;;;;10251028;28;20514;-62
2024/03/18 09:42:43;;;;;;;8.85;7.93;;;;;;;;;;10260299;28;20064;-62
2024/03/18 09:47:41;;;;;;;10.07;8.95;;;;;;;;;;10256494;28;20077;-62
2024/03/18 09:52:42;;;;;;;9.82;7.63;;;;;;;;;;10255889;28;20069;-65
2024/03/18 09:57:39;;;;;;;11.52;7.95;;;;;;;;;;10259411;28;20049;-64
2024/03/18 10:02:37;;;;;;;4.32;3.90;;;;;;;;;;10255352;28;20084;-64
2024/03/18 10:07:35;;;;;;;4.78;4.28;;;;;;;;;;10255940;28;20514;-64
2024/03/18 10:12:34;;;;;;;6.78;4.60;;;;;;;;;;10277409;28;20079;-63
2024/03/18 10:17:31;;;;;;;6.75;5.20;;;;;;;;;;10283357;28;20442;-62
2024/03/18 10:22:29;;;;;;;7.10;5.00;;;;;;;;;;10281727;28;20068;-63
2024/03/18 10:27:27;;;;;;;7.82;4.63;;;;;;;;;;10281383;28;20076;-63
2024/03/18 10:32:27;;;;;;;5.88;5.10;;;;;;;;;;10277749;28;20075;-63
2024/03/18 10:37:25;;;;;;;6.35;4.32;;;;;;;;;;10278442;28;20333;-63
2024/03/18 10:42:26;;;;;;;6.35;4.55;;;;;;;;;;10278648;28;20493;-62
2024/03/18 10:47:23;;;;;;;22.83;17.73;;;;;;;;;;10284395;28;20072;-62
2024/03/18 10:52:24;;;;;;;6.22;3.97;;;;;;;;;;10264528;28;20056;-62
2024/03/18 10:57:22;;;;;;;5.75;3.92;;;;;;;;;;10277949;28;20068;-62
2024/03/18 11:02:26;;;;;;;5.50;4.60;;;;;;;;;;10278535;28;20556;-62
2024/03/18 11:07:31;;;;;;;6.35;4.07;;;;;;;;;;10287255;28;20494;-62
2024/03/18 11:12:32;;;;;;;5.90;4.70;;;;;;;;;;10277309;28;20068;-63
2024/03/18 11:17:30;;;;;;;6.40;4.47;;;;;;;;;;10298913;28;20067;-63
2024/03/18 11:22:29;;;;;;;5.18;3.78;;;;;;;;;;10278544;28;20076;-62
2024/03/18 11:27:30;;;;;;;6.30;4.40;;;;;;;;;;10277163;28;20056;-63
2024/03/18 11:32:27;;;;;;;5.78;3.03;;;;;;;;;;10276136;28;20065;-62
2024/03/18 11:37:25;;;;;;;6.72;3.92;;;;;;;;;;10275662;28;20462;-63
2024/03/18 11:42:24;;;;;;;7.03;3.55;;;;;;;;;;10276916;28;20470;-63
2024/03/18 11:47:21;;;;;;;7.47;3.83;;;;;;;;;;10282682;28;20064;-63
2024/03/18 11:52:18;;;;;;;4.68;3.40;;;;;;;;;;10282589;28;20060;-64
2024/03/18 11:57:16;;;;;;;8.88;3.45;;;;;;;;;;10280405;28;20077;-63
2024/03/18 12:02:15;;;;;;;4.63;2.88;;;;;;;;;;10279117;28;20073;-63
2024/03/18 12:07:13;;;;;;;4.28;2.83;;;;;;;;;;10275411;28;20060;-63
2024/03/18 12:12:11;;;;;;;3.47;2.75;;;;;;;;;;10274827;28;20076;-62
2024/03/18 12:17:11;;;;;;;4.53;3.40;;;;;;;;;;10278800;28;20060;-63
2024/03/18 12:22:12;;;;;;;2.97;2.47;;;;;;;;;;10282168;28;20072;-63
2024/03/18 12:32:26;;;;;;;3.50;2.83;;;;;;;;;;10281824;28;20074;-63
2024/03/18 12:37:29;;;;;;;5.35;3.22;;;;;;;;;;10274517;28;20529;-63
2024/03/18 12:42:26;;;;;;;3.17;2.42;;;;;;;;;;10274093;28;20151;-63
2024/03/18 12:47:23;;;;;;;4.55;2.92;;;;;;;;;;10258560;28;20072;-63
2024/03/18 12:52:21;;;;;;;3.90;2.35;;;;;;;;;;10278470;28;20514;-63
2024/03/18 12:57:20;;;;;;;4.13;3.05;;;;;;;;;;10278897;28;20060;-63
2024/03/18 13:02:17;;;;;;;5.63;3.53;;;;;;;;;;10274146;28;20569;-63
2024/03/18 13:07:15;;;;;;;4.10;3.00;;;;;;;;;;10280636;28;20060;-63
2024/03/18 13:12:12;;;;;;;7.97;3.05;;;;;;;;;;10273711;28;20104;-63
2024/03/18 13:17:11;;;;;;;5.82;2.97;;;;;;;;;;10275380;28;20068;-63
2024/03/18 13:22:09;;;;;;;6.32;2.38;;;;;;;;;;10273404;28;20469;-63
2024/03/18 13:27:08;;;;;;;3.08;2.38;;;;;;;;;;10274000;28;20060;-63
2024/03/18 13:32:07;;;;;;;4.75;2.85;;;;;;;;;;10271846;28;20072;-62
2024/03/18 13:37:06;;;;;;;5.97;2.17;;;;;;;;;;10274361;28;20060;-63
2024/03/18 13:42:09;;;;;;;4.65;2.42;;;;;;;;;;10274193;28;20077;-63
2024/03/18 13:47:07;;;;;;;4.93;2.45;;;;;;;;;;10272573;28;20073;-63
2024/03/18 13:52:06;;;;;;;4.25;2.20;;;;;;;;;;10271842;28;20521;-62
2024/03/18 13:57:06;;;;;;;4.82;1.95;;;;;;;;;;10279884;28;20080;-63
2024/03/18 14:02:04;;;;;;;6.35;2.45;;;;;;;;;;10279013;28;20069;-62
2024/03/18 14:07:05;;;;;;;5.18;2.17;;;;;;;;;;10280343;28;20558;-63
2024/03/18 14:12:04;;;;;;;6.75;4.10;;;;;;;;;;10283874;28;20463;-63
2024/03/18 14:17:04;;;;;;;9.63;5.30;;;;;;;;;;10284834;28;20067;-63
2024/03/18 14:22:02;;;;;;;8.35;3.95;;;;;;;;;;10281646;28;20075;-61
2024/03/18 14:27:00;;;;;;;5.72;3.28;;;;;;;;;;10284931;28;20072;-62
2024/03/18 14:32:01;;;;;;;4.25;2.67;;;;;;;;;;10278659;28;20078;-62
2024/03/18 14:37:02;;;;;;;5.45;3.85;;;;;;;;;;10278042;28;20513;-62
2024/03/18 14:42:00;;;;;;;7.55;3.90;;;;;;;;;;10278943;28;20072;-62
2024/03/18 14:46:59;;;;;;;10.68;3.63;;;;;;;;;;10278837;28;20080;-64
2024/03/18 14:51:56;;;;;;;3.83;2.65;;;;;;;;;;10283504;28;20071;-63
2024/03/18 14:56:54;;;;;;;6.28;3.13;;;;;;;;;;10277837;28;20065;-62
2024/03/18 15:01:51;;;;;;;8.80;4.82;;;;;;;;;;10277257;28;20071;-63
2024/03/18 15:06:50;;;;;;;9.15;7.13;;;;;;;;;;10276754;28;20076;-62
2024/03/18 15:11:47;;;;;;;15.50;5.78;;;;;;;;;;10271168;28;20080;-63
2024/03/18 15:16:45;;;;;;;9.32;4.40;;;;;;;;;;10281806;28;20514;-62
2024/03/18 15:21:42;;;;;;;5.35;3.17;;;;;;;;;;10289077;28;20068;-62
2024/03/18 15:31:56;;;;;;;13.38;5.80;;;;;;;;;;10279626;28;20068;-63
2024/03/18 15:36:53;;;;;;;5.35;4.82;;;;;;;;;;10276626;28;20473;-62
2024/03/18 15:41:52;;;;;;;11.15;5.63;;;;;;;;;;10275954;28;20518;-62
2024/03/18 15:46:50;;;;;;;12.20;5.65;;;;;;;;;;10274111;28;20076;-62
2024/03/18 15:51:47;;;;;;;9.75;4.50;;;;;;;;;;10277301;28;20068;-62
2024/03/18 15:56:45;;;;;;;8.65;6.82;;;;;;;;;;10278248;28;20536;-62
2024/03/18 16:01:46;;;;;;;18.90;13.77;;;;;;;;;;10270542;28;20082;-61
2024/03/18 16:06:44;;;;;;;11.73;8.23;;;;;;;;;;10279903;28;20443;-63
2024/03/18 16:11:41;;;;;;;22.27;11.60;;;;;;;;;;10279207;28;20503;-62
2024/03/18 16:16:39;;;;;;;29.15;20.15;;;;;;;;;;10283171;28;20075;-65
2024/03/18 16:21:38;;;;;;;21.67;12.23;;;;;;;;;;10273590;28;20090;-64
2024/03/18 16:26:36;;;;;;;17.20;11.93;;;;;;;;;;10275996;28;20060;-64
2024/03/18 16:31:34;;;;;;;20.50;13.02;;;;;;;;;;10274184;28;20068;-63
2024/03/18 16:36:33;;;;;;;17.40;9.95;;;;;;;;;;10280395;28;20060;-63
2024/03/18 16:41:32;;;;;;;17.50;13.20;;;;;;;;;;10281665;28;20081;-61
2024/03/18 16:46:29;;;;;;;19.27;10.07;;;;;;;;;;10285253;28;20056;-62
2024/03/18 16:51:26;;;;;;;12.45;11.15;;;;;;;;;;10276207;28;20053;-62
2024/03/18 16:56:24;;;;;;;15.23;9.30;;;;;;;;;;10268661;28;20069;-62
2024/03/18 17:01:23;;;;;;;11.73;10.18;;;;;;;;;;10269596;28;20064;-62
2024/03/18 17:06:20;;;;;;;13.77;10.65;;;;;;;;;;10273315;28;20064;-62
2024/03/18 17:11:18;;;;;;;17.38;12.35;;;;;;;;;;10261047;28;20092;-62
2024/03/18 17:16:17;;;;;;;18.50;13.05;;;;;;;;;;10253572;28;20122;-63
2024/03/18 17:21:15;;;;;;;15.05;11.50;;;;;;;;;;10232632;28;20397;-62
2024/03/18 17:26:15;;;;;;;15.57;12.07;;;;;;;;;;10231400;28;20564;-62
2024/03/18 17:31:12;;;;;;;18.63;12.30;;;;;;;;;;10234116;28;20117;-62
2024/03/18 17:36:10;;;;;;;18.90;13.32;;;;;;;;;;10241354;28;20499;-61
2024/03/18 17:41:10;;;;;;;18.65;13.68;;;;;;;;;;10243521;28;20077;-63
2024/03/18 17:46:08;;;;;;;17.77;12.43;;;;;;;;;;10245943;28;20526;-62
2024/03/18 17:51:07;;;;;;;15.23;13.30;;;;;;;;;;10247570;28;20138;-62
2024/03/18 17:56:05;;;;;;;14.30;12.80;;;;;;;;;;10242780;28;20064;-62
2024/03/18 18:01:04;;;;;;;15.40;11.15;;;;;;;;;;10242640;28;20077;-62
2024/03/18 18:06:02;;;;;;;14.85;13.25;;;;;;;;;;10242260;28;20061;-62
2024/03/18 18:10:59;;;;;;;18.17;13.98;;;;;;;;;;10247131;28;20087;-62
2024/03/18 18:15:57;;;;;;;16.92;12.60;;;;;;;;;;10285145;28;20072;-62
2024/03/18 18:20:56;;;;;;;13.57;11.98;;;;;;;;;;10274607;28;20068;-62
2024/03/18 18:25:54;;;;;;;13.85;10.75;;;;;;;;;;10282445;28;20072;-62
2024/03/18 18:30:52;;;;;;;14.30;11.50;;;;;;;;;;10282667;28;20056;-62
2024/03/18 18:35:49;;;;;;;15.43;13.07;;;;;;;;;;10284610;28;20097;-62
2024/03/18 18:40:48;;;;;;;14.85;11.82;;;;;;;;;;10283558;28;21456;-62
2024/03/18 18:45:45;;;;;;;16.33;11.20;;;;;;;;;;10289746;28;20069;-63
2024/03/18 18:50:43;;;;;;;16.00;12.98;;;;;;;;;;10279097;28;20076;-59
2024/03/18 18:55:46;;;;;;;19.40;12.43;;;;;;;;;;10288815;28;20514;-60
2024/03/18 19:00:46;;;;;;;15.65;12.32;;;;;;;;;;10268325;28;20085;-61
2024/03/18 19:05:43;;;;;;;14.40;11.68;;;;;;;;;;10288381;28;20068;-61
2024/03/18 19:10:41;;;;;;;11.93;10.32;;;;;;;;;;10296191;28;20092;-61
2024/03/18 19:15:38;;;;;;;13.82;11.75;;;;;;;;;;10276528;28;20080;-61
2024/03/18 19:20:37;;;;;;;16.52;12.98;;;;;;;;;;10282738;28;20084;-62
2024/03/18 19:25:35;;;;;;;19.75;15.10;;;;;;;;;;10280305;28;20183;-61
2024/03/18 19:30:33;;;;;;;19.48;14.80;;;;;;;;;;10277836;28;20067;-62
2024/03/18 19:35:30;;;;;;;15.80;12.73;;;;;;;;;;10279001;28;20064;-62
2024/03/18 19:40:30;;;;;;;12.48;11.27;;;;;;;;;;10279999;28;20052;-62
2024/03/18 19:45:28;;;;;;;15.52;11.40;;;;;;;;;;10286882;28;20102;-62
2024/03/18 19:50:25;;;;;;;13.98;11.45;;;;;;;;;;10287050;28;20521;-61
2024/03/18 19:55:23;;;;;;;13.90;11.65;;;;;;;;;;10279080;28;20067;-61
2024/03/18 20:00:22;;;;;;;16.20;12.60;;;;;;;;;;10269418;28;20060;-62
2024/03/18 20:05:19;;;;;;;14.15;12.27;;;;;;;;;;10263438;28;20072;-61
2024/03/18 20:10:17;;;;;;;16.00;12.65;;;;;;;;;;10281294;28;20084;-62
2024/03/18 20:15:15;;;;;;;14.25;12.52;;;;;;;;;;10276543;28;20073;-61
2024/03/18 20:20:14;;;;;;;14.90;11.88;;;;;;;;;;10274604;28;20060;-62
2024/03/18 20:25:13;;;;;;;14.25;12.75;;;;;;;;;;10277005;28;20099;-62
2024/03/18 20:30:12;;;;;;;15.02;11.55;;;;;;;;;;10274790;28;20070;-61
2024/03/18 20:35:10;;;;;;;15.82;12.15;;;;;;;;;;10276547;28;20459;-62
2024/03/18 20:40:11;;;;;;;16.38;12.45;;;;;;;;;;10273512;28;20096;-61
2024/03/18 20:45:09;;;;;;;15.98;12.57;;;;;;;;;;10275881;28;20091;-62
2024/03/18 20:50:07;;;;;;;15.20;11.85;;;;;;;;;;10276146;28;20095;-62
2024/03/18 20:55:10;;;;;;;16.35;11.85;;;;;;;;;;10279221;28;20072;-62
2024/03/18 21:00:14;;;;;;;17.08;12.55;;;;;;;;;;10284034;28;20540;-61
2024/03/18 21:05:14;;;;;;;16.20;11.05;;;;;;;;;;10280459;28;20080;-62
2024/03/18 21:10:12;;;;;;;13.63;11.25;;;;;;;;;;10279009;28;20391;-62
2024/03/18 21:15:11;;;;;;;14.65;10.75;;;;;;;;;;10280569;28;20542;-61
2024/03/18 21:20:10;;;;;;;18.08;11.93;;;;;;;;;;10277886;28;20064;-61
2024/03/18 21:25:09;;;;;;;13.23;10.95;;;;;;;;;;10276375;28;20068;-62
2024/03/18 21:30:08;;;;;;;12.45;10.57;;;;;;;;;;10283312;28;20061;-61
2024/03/18 21:35:09;;;;;;;13.45;11.45;;;;;;;;;;10280895;28;20079;-62
2024/03/18 21:40:07;;;;;;;13.02;9.93;;;;;;;;;;10282000;28;20075;-62
2024/03/18 21:45:06;;;;;;;15.50;10.15;;;;;;;;;;10280717;28;20076;-62
2024/03/18 21:50:04;;;;;;;13.45;10.40;;;;;;;;;;10281047;28;20083;-62
2024/03/18 21:55:02;;;;;;;11.50;10.23;;;;;;;;;;10284149;28;20080;-62
2024/03/18 22:00:00;;;;;;;13.90;12.48;;;;;;;;;;10279867;28;20075;-62
2024/03/18 22:04:57;;;;;;;13.40;10.02;;;;;;;;;;10283066;28;20080;-62
2024/03/18 22:09:55;;;;;;;13.95;10.85;;;;;;;;;;10280574;28;20067;-62
2024/03/18 22:14:54;;;;;;;10.32;9.00;;;;;;;;;;10251573;28;20450;-62
2024/03/18 22:19:51;;;;;;;12.20;9.70;;;;;;;;;;10268902;28;20060;-61
2024/03/18 22:24:49;;;;;;;9.43;8.43;;;;;;;;;;10254077;28;20071;-62
2024/03/18 22:29:46;;;;;;;10.52;8.82;;;;;;;;;;10249178;28;20064;-61
2024/03/18 22:34:45;;;;;;;12.35;9.57;;;;;;;;;;10251803;28;20065;-62
2024/03/18 22:39:42;;;;;;;21.05;15.00;;;;;;;;;;10245515;28;20092;-62
2024/03/18 22:44:40;;;;;;;14.60;11.13;;;;;;;;;;10244664;28;20061;-62
2024/03/18 22:49:37;;;;;;;17.40;12.50;;;;;;;;;;10248735;28;20087;-63
2024/03/18 22:54:36;;;;;;;18.13;12.15;;;;;;;;;;10244299;28;20080;-61
2024/03/18 22:59:34;;;;;;;14.48;11.30;;;;;;;;;;10250188;28;20068;-62
2024/03/18 23:04:31;;;;;;;19.45;11.30;;;;;;;;;;10248404;28;20067;-62
2024/03/18 23:09:29;;;;;;;32.03;18.30;;;;;;;;;;10249424;28;20064;-62
2024/03/18 23:14:27;;;;;;;23.38;15.13;;;;;;;;;;10260442;28;20084;-62
2024/03/18 23:19:25;;;;;;;23.52;14.10;;;;;;;;;;10259185;28;20084;-62
2024/03/18 23:24:22;;;;;;;13.05;8.40;;;;;;;;;;10252897;28;20077;-62
2024/03/18 23:29:20;;;;;;;10.05;8.10;;;;;;;;;;10273903;28;20064;-62
2024/03/18 23:34:19;;;;;;;12.00;8.80;;;;;;;;;;10259668;28;20065;-62
2024/03/18 23:39:17;;;;;;;9.18;6.95;;;;;;;;;;10257160;28;20065;-62
2024/03/18 23:44:16;;;;;;;9.93;7.22;;;;;;;;;;10257473;28;20072;-61
2024/03/18 23:49:14;;;;;;;8.38;6.60;;;;;;;;;;10237345;28;20100;-62
2024/03/18 23:54:13;;;;;;;9.68;7.22;;;;;;;;;;10252291;28;20065;-62
2024/03/18 23:59:10;;;;;;;7.53;6.30;;;;;;;;;;10238105;28;20066;-61
